ZMT weather

Public forecast

Using degrees Celsius for public forecast. Weather courtesy of forecast.io.

Current aviation weather report (METAR) for Masset Airport

Report is more than 2 hours old.

Retrieved 2020/08/15 00:00 UTC (4 hours ago):

CZMT 150000Z 17008KT 12SM -RA FEW007 FEW015 SCT030 OVC050 16/16 A2989 RMK SF1SC1SC3SC4 SF TR LAST STFD OBS/NXT 151300Z SLP123 DENSITY ALT 300FT

Aviation forecast (TAF) for Masset Airport

Forecast is more than 6 hours old.

Retrieved 2020/08/14 19:00 UTC (9 hours ago):

TAF CZMT 141838Z 1419/1424 18008KT P6SM -RA SCT020 BKN040 OVC100 TEMPO 1419/1424 5SM -RA BR BKN020 OVC040 RMK NXT FCST WILL BE ISSUED AT 151415Z